createdAt,value
2023-05-02T00:01:22.305Z,99565.73
2023-05-02T00:03:49.972Z,99563.64
2023-05-02T00:06:17.371Z,99562.09
2023-05-02T00:08:44.891Z,99564.27
2023-05-02T00:11:12.438Z,99566.98
2023-05-02T00:13:39.797Z,99569.50
2023-05-02T00:16:07.401Z,99567.67
2023-05-02T00:18:34.807Z,99569.14
2023-05-02T00:21:02.057Z,99568.59
2023-05-02T00:23:29.723Z,99566.64
2023-05-02T00:25:57.063Z,99565.27
2023-05-02T00:28:24.431Z,99567.84
2023-05-02T00:30:52.099Z,99567.88
2023-05-02T00:33:19.535Z,99565.75
2023-05-02T00:35:47.017Z,99568.47
2023-05-02T00:38:14.662Z,99565.37
2023-05-02T00:40:48.279Z,99562.39
2023-05-02T00:43:15.664Z,99567.76
2023-05-02T00:45:43.701Z,99566.08
2023-05-02T00:48:11.541Z,99570.39
2023-05-02T00:50:40.773Z,99570.61
2023-05-02T00:53:08.728Z,99572.30
2023-05-02T00:55:36.387Z,99573.89
2023-05-02T00:58:05.688Z,99576.52
2023-05-02T01:00:51.775Z,99578.47
2023-05-02T01:03:26.251Z,99574.56
2023-05-02T01:05:58.889Z,99573.63
2023-05-02T01:08:38.017Z,99578.93
2023-05-02T01:11:08.938Z,99580.90
2023-05-02T01:13:36.422Z,99580.97
2023-05-02T01:16:03.913Z,99583.77
2023-05-02T01:18:32.856Z,99586.19
2023-05-02T01:21:03.990Z,99586.83
2023-05-02T01:23:35.764Z,99584.63
2023-05-02T01:26:17.231Z,99585.30
2023-05-02T01:29:06.970Z,99590.73
2023-05-02T01:31:38.699Z,99588.45
2023-05-02T01:34:07.147Z,99590.06
2023-05-02T01:36:35.011Z,99591.08
2023-05-02T01:39:02.411Z,99592.33
2023-05-02T01:41:30.746Z,99596.84
2023-05-02T01:43:59.019Z,99597.48
2023-05-02T01:46:27.689Z,99598.15
2023-05-02T01:48:56.092Z,99601.42
2023-05-02T01:51:23.548Z,99604.38
2023-05-02T01:53:51.204Z,99607.79
2023-05-02T01:56:18.647Z,99610.89
2023-05-02T01:58:47.052Z,99615.30
2023-05-02T02:01:15.795Z,99617.08
2023-05-02T02:03:43.615Z,99622.14
2023-05-02T02:06:11.819Z,99628.48
2023-05-02T02:08:39.631Z,99637.57
2023-05-02T02:11:09.238Z,99639.62
2023-05-02T02:13:38.131Z,99651.46
2023-05-02T02:16:06.097Z,99663.80
2023-05-02T02:18:35.908Z,99663.77
2023-05-02T02:21:03.879Z,99676.23
2023-05-02T02:23:31.538Z,99688.67
2023-05-02T02:25:59.292Z,99699.13
2023-05-02T02:28:27.076Z,99714.33
2023-05-02T02:30:56.041Z,99730.91
2023-05-02T02:33:24.233Z,99744.49
2023-05-02T02:35:54.169Z,99760.36
2023-05-02T02:38:33.691Z,99776.71
2023-05-02T02:41:02.986Z,99790.98
2023-05-02T02:43:34.137Z,99799.90
2023-05-02T02:46:04.717Z,99808.14
2023-05-02T02:48:36.336Z,99819.14
2023-05-02T02:51:09.513Z,99819.41
2023-05-02T02:53:52.326Z,99832.04
2023-05-02T02:56:22.557Z,99843.92
2023-05-02T02:58:57.770Z,99848.80
2023-05-02T03:01:25.906Z,99854.91
2023-05-02T03:03:53.868Z,99863.55
2023-05-02T03:06:21.415Z,99874.88
2023-05-02T03:08:48.834Z,99882.23
2023-05-02T03:11:17.930Z,99894.67
2023-05-02T03:13:45.382Z,99903.98
2023-05-02T03:16:32.533Z,99912.20
2023-05-02T03:19:00.296Z,99917.96
2023-05-02T03:21:28.036Z,99923.58
2023-05-02T03:23:56.820Z,99927.29
2023-05-02T03:26:24.214Z,99937.25
2023-05-02T03:28:52.861Z,99946.36
2023-05-02T03:31:24.013Z,99954.23
2023-05-02T03:33:53.508Z,99961.32
2023-05-02T03:36:21.073Z,99966.02
2023-05-02T03:38:48.935Z,99973.76
2023-05-02T03:41:17.210Z,99989.65
2023-05-02T03:43:44.868Z,100005.56
2023-05-02T03:46:12.370Z,100002.39
2023-05-02T03:48:40.502Z,100023.15
2023-05-02T03:51:09.871Z,100024.43
2023-05-02T03:53:39.748Z,100035.17
2023-05-02T03:56:08.707Z,100041.41
2023-05-02T03:58:42.921Z,100042.98
2023-05-02T04:01:14.072Z,100051.83
2023-05-02T04:03:42.102Z,100060.40
2023-05-02T04:06:11.381Z,100067.93
2023-05-02T04:08:39.858Z,100076.00
2023-05-02T04:11:07.677Z,100086.48
2023-05-02T04:13:39.281Z,100092.84
2023-05-02T04:16:07.050Z,100101.73
2023-05-02T04:18:37.562Z,100107.02
2023-05-02T04:21:08.227Z,100106.79
2023-05-02T04:23:36.241Z,100109.59
2023-05-02T04:26:04.504Z,100112.50
2023-05-02T04:28:37.715Z,100116.54
2023-05-02T04:31:05.609Z,100120.25
2023-05-02T04:33:33.427Z,100127.30
2023-05-02T04:36:01.389Z,100134.12
2023-05-02T04:38:29.361Z,100133.87
2023-05-02T04:40:57.025Z,100138.67
2023-05-02T04:43:32.275Z,100141.91
2023-05-02T04:46:02.222Z,100147.95
2023-05-02T04:48:34.055Z,100142.95
2023-05-02T04:51:01.697Z,100145.78
2023-05-02T04:53:30.703Z,100142.36
2023-05-02T04:55:58.343Z,100146.08
2023-05-02T04:58:25.952Z,100146.95
2023-05-02T05:00:58.968Z,100145.72
2023-05-02T05:03:28.761Z,100147.27
2023-05-02T05:05:57.624Z,100148.27
2023-05-02T05:08:25.669Z,100148.88
2023-05-02T05:10:53.349Z,100148.63
2023-05-02T05:13:21.606Z,100152.18
2023-05-02T05:15:50.296Z,100151.46
2023-05-02T05:18:19.289Z,100153.20
2023-05-02T05:20:46.705Z,100153.88
2023-05-02T05:23:13.984Z,100157.48
2023-05-02T05:25:43.549Z,100159.60
2023-05-02T05:28:14.003Z,100158.58
2023-05-02T05:30:41.563Z,100160.25
2023-05-02T05:33:12.289Z,100159.30
2023-05-02T05:35:40.216Z,100160.20
2023-05-02T05:38:07.620Z,100156.59
2023-05-02T05:40:37.694Z,100160.10
2023-05-02T05:43:05.722Z,100154.90
2023-05-02T05:45:36.739Z,100159.32
2023-05-02T05:48:06.085Z,100162.48
2023-05-02T05:50:38.726Z,100167.55
2023-05-02T05:53:06.483Z,100169.48
2023-05-02T05:55:37.212Z,100170.50
2023-05-02T05:58:06.543Z,100173.96
2023-05-02T06:00:35.339Z,100177.23
2023-05-02T06:03:03.290Z,100172.52
2023-05-02T06:05:43.188Z,100174.12
2023-05-02T06:08:10.715Z,100179.15
2023-05-02T06:10:38.371Z,100176.34
2023-05-02T06:13:06.581Z,100178.88
2023-05-02T06:15:37.025Z,100174.77
2023-05-02T06:18:06.357Z,100178.60
2023-05-02T06:20:35.638Z,100185.04
2023-05-02T06:23:03.071Z,100184.48
2023-05-02T06:25:30.612Z,100188.63
2023-05-02T06:27:58.074Z,100190.89
2023-05-02T06:30:25.792Z,100194.77
2023-05-02T06:32:53.181Z,100197.49
2023-05-02T06:35:21.125Z,100202.00
2023-05-02T06:37:48.536Z,100202.33
2023-05-02T06:40:16.219Z,100207.05
2023-05-02T06:42:43.494Z,100203.85
2023-05-02T06:45:11.545Z,100206.52
2023-05-02T06:47:38.910Z,100208.36
2023-05-02T06:50:06.631Z,100212.95
2023-05-02T06:52:34.109Z,100214.54
2023-05-02T06:55:01.354Z,100216.05
2023-05-02T06:57:28.915Z,100210.33
2023-05-02T06:59:56.356Z,100210.12
2023-05-02T07:02:23.906Z,100218.50
2023-05-02T07:04:51.547Z,100215.31
2023-05-02T07:07:21.438Z,100223.22
2023-05-02T07:09:49.152Z,100228.63
2023-05-02T07:12:16.648Z,100229.82
2023-05-02T07:14:44.708Z,100226.94
2023-05-02T07:17:12.055Z,100227.62
2023-05-02T07:19:39.380Z,100224.37
2023-05-02T07:22:07.490Z,100227.46
2023-05-02T07:24:35.266Z,100229.71
2023-05-02T07:27:03.678Z,100236.15
2023-05-02T07:29:31.034Z,100234.92
2023-05-02T07:31:58.982Z,100245.05
2023-05-02T07:34:26.334Z,100248.98
2023-05-02T07:36:53.889Z,100254.45
2023-05-02T07:39:21.485Z,100257.61
2023-05-02T07:41:51.866Z,100257.30
2023-05-02T07:44:19.125Z,100262.45
2023-05-02T07:46:46.554Z,100263.08
2023-05-02T07:49:14.232Z,100266.15
2023-05-02T07:51:41.817Z,100265.35
2023-05-02T07:54:15.856Z,100265.52
2023-05-02T07:56:43.481Z,100266.05
2023-05-02T07:59:11.658Z,100271.04
2023-05-02T08:01:39.828Z,100272.02
2023-05-02T08:04:07.375Z,100273.67
2023-05-02T08:06:35.235Z,100276.23
2023-05-02T08:09:02.523Z,100272.23
2023-05-02T08:11:30.075Z,100268.08
2023-05-02T08:13:57.410Z,100276.11
2023-05-02T08:16:24.844Z,100276.33
2023-05-02T08:18:52.455Z,100269.54
2023-05-02T08:21:19.791Z,100267.81
2023-05-02T08:23:47.239Z,100269.04
2023-05-02T08:26:16.345Z,100269.48
2023-05-02T08:28:43.792Z,100268.71
2023-05-02T08:31:11.181Z,100272.41
2023-05-02T08:33:38.733Z,100270.77
2023-05-02T08:36:12.486Z,100269.68
2023-05-02T08:38:39.895Z,100271.23
2023-05-02T08:41:11.806Z,100275.81
2023-05-02T08:43:39.377Z,100272.45
2023-05-02T08:46:09.734Z,100265.45
2023-05-02T08:48:37.503Z,100264.52
2023-05-02T08:51:05.014Z,100259.23
2023-05-02T08:53:33.718Z,100259.18
2023-05-02T08:56:01.208Z,100254.66
2023-05-02T08:58:29.550Z,100254.09
2023-05-02T09:00:57.453Z,100259.86
2023-05-02T09:03:34.525Z,100261.03
2023-05-02T09:06:01.790Z,100262.40
2023-05-02T09:08:29.828Z,100262.36
2023-05-02T09:10:57.778Z,100261.94
2023-05-02T09:13:28.046Z,100261.55
2023-05-02T09:15:59.871Z,100261.67
2023-05-02T09:18:28.549Z,100254.98
2023-05-02T09:20:56.221Z,100255.81
2023-05-02T09:23:32.793Z,100252.17
2023-05-02T09:26:01.155Z,100250.54
2023-05-02T09:28:41.741Z,100253.79
2023-05-02T09:31:12.727Z,100251.98
2023-05-02T09:33:40.321Z,100254.35
2023-05-02T09:36:08.328Z,100253.14
2023-05-02T09:38:36.059Z,100256.20
2023-05-02T09:41:03.812Z,100255.89
2023-05-02T09:43:31.635Z,100252.48
2023-05-02T09:45:59.023Z,100258.60
2023-05-02T09:48:27.221Z,100257.84
2023-05-02T09:50:54.952Z,100260.62
2023-05-02T09:53:22.335Z,100256.16
2023-05-02T09:55:49.770Z,100251.05
2023-05-02T09:58:21.637Z,100245.62
2023-05-02T10:00:49.311Z,100248.51
2023-05-02T10:03:17.651Z,100245.29
2023-05-02T10:05:46.129Z,100247.71
2023-05-02T10:08:13.892Z,100246.60
2023-05-02T10:10:42.012Z,100244.11
2023-05-02T10:13:09.320Z,100244.31
2023-05-02T10:15:38.019Z,100249.13
2023-05-02T10:18:08.429Z,100244.33
2023-05-02T10:20:37.287Z,100242.05
2023-05-02T10:23:04.745Z,100239.05
2023-05-02T10:25:32.388Z,100240.06
2023-05-02T10:27:59.956Z,100245.54
2023-05-02T10:30:27.909Z,100243.46
2023-05-02T10:32:55.268Z,100244.73
2023-05-02T10:35:23.439Z,100243.30
2023-05-02T10:37:51.416Z,100244.57
2023-05-02T10:40:21.600Z,100245.11
2023-05-02T10:42:49.960Z,100252.13
2023-05-02T10:45:30.896Z,100247.52
2023-05-02T10:48:17.649Z,100249.52
2023-05-02T10:50:51.553Z,100251.14
2023-05-02T10:53:34.432Z,100246.70
2023-05-02T10:56:09.140Z,100247.18
2023-05-02T10:58:36.598Z,100243.52
2023-05-02T11:01:24.748Z,100239.38
2023-05-02T11:03:56.959Z,100236.86
2023-05-02T11:06:28.364Z,100239.06
2023-05-02T11:09:22.257Z,100237.86
2023-05-02T11:11:50.941Z,100235.30
2023-05-02T11:14:41.862Z,100233.30
2023-05-02T11:17:09.894Z,100232.58
2023-05-02T11:19:43.497Z,100236.82
2023-05-02T11:22:20.861Z,100231.31
2023-05-02T11:24:48.833Z,100228.55
2023-05-02T11:27:33.772Z,100225.67
2023-05-02T11:30:02.057Z,100220.25
2023-05-02T11:32:45.728Z,100224.20
2023-05-02T11:35:16.416Z,100214.86
2023-05-02T11:37:44.144Z,100214.97
2023-05-02T11:40:12.787Z,100215.87
2023-05-02T11:42:40.413Z,100208.08
2023-05-02T11:45:07.979Z,100201.45
2023-05-02T11:47:35.545Z,100203.23
2023-05-02T11:50:06.994Z,100196.73
2023-05-02T11:52:39.395Z,100202.16
2023-05-02T11:55:09.580Z,100199.16
2023-05-02T11:57:37.611Z,100199.06
2023-05-02T12:00:05.232Z,100199.48
2023-05-02T12:02:36.586Z,100198.73
2023-05-02T12:05:06.346Z,100199.36
2023-05-02T12:07:51.865Z,100203.44
2023-05-02T12:10:19.157Z,100200.66
2023-05-02T12:12:46.711Z,100203.58
2023-05-02T12:15:14.218Z,100200.83
2023-05-02T12:17:43.587Z,100196.15
2023-05-02T12:20:11.263Z,100197.92
2023-05-02T12:22:38.767Z,100200.35
2023-05-02T12:25:07.361Z,100201.89
2023-05-02T12:27:35.777Z,100202.91
2023-05-02T12:30:03.778Z,100206.02
2023-05-02T12:32:32.240Z,100198.78
2023-05-02T12:34:59.923Z,100197.51
2023-05-02T12:37:27.380Z,100195.29
2023-05-02T12:39:55.911Z,100206.67
2023-05-02T12:42:23.975Z,100206.08
2023-05-02T12:44:54.376Z,100214.45
2023-05-02T12:47:25.378Z,100208.55
2023-05-02T12:49:53.855Z,100209.16
2023-05-02T12:52:21.677Z,100205.64
2023-05-02T12:54:49.040Z,100209.11
2023-05-02T13:00:16.488Z,100212.25
2023-05-02T13:02:44.435Z,100206.73
2023-05-02T13:05:15.861Z,100208.27
2023-05-02T13:07:44.001Z,100211.24
2023-05-02T13:10:12.376Z,100211.95
2023-05-02T13:12:39.858Z,100206.87
2023-05-02T13:15:08.298Z,100198.58
2023-05-02T13:17:36.087Z,100198.38
2023-05-02T13:20:04.625Z,100199.18
2023-05-02T13:22:32.342Z,100194.61
2023-05-02T13:24:59.565Z,100195.98
2023-05-02T13:27:27.719Z,100197.23
2023-05-02T13:29:55.166Z,100191.40
2023-05-02T13:32:22.727Z,100198.17
2023-05-02T13:34:50.160Z,100203.80
2023-05-02T13:37:17.622Z,100203.49
2023-05-02T13:39:45.194Z,100203.47
2023-05-02T13:42:12.663Z,100205.60
2023-05-02T13:44:43.216Z,100198.08
2023-05-02T13:47:10.681Z,100193.31
2023-05-02T13:49:38.010Z,100192.70
2023-05-02T13:52:07.671Z,100203.84
2023-05-02T13:54:35.511Z,100199.73
2023-05-02T13:57:03.258Z,100203.88
2023-05-02T13:59:39.095Z,100205.26
2023-05-02T14:02:06.394Z,100210.22
2023-05-02T14:04:36.397Z,100210.73
2023-05-02T14:07:05.274Z,100209.03
2023-05-02T14:09:35.615Z,100205.73
2023-05-02T14:12:03.115Z,100203.77
2023-05-02T14:14:30.561Z,100206.49
2023-05-02T14:16:57.953Z,100202.06
2023-05-02T14:19:28.606Z,100203.39
2023-05-02T14:21:59.852Z,100204.86
2023-05-02T14:24:27.480Z,100200.87
2023-05-02T14:26:54.990Z,100199.44
2023-05-02T14:29:22.400Z,100203.04
2023-05-02T14:31:49.846Z,100204.84
2023-05-02T14:34:17.366Z,100199.77
2023-05-02T14:37:06.286Z,100205.92
2023-05-02T14:39:36.418Z,100205.04
2023-05-02T14:42:07.173Z,100198.78
2023-05-02T14:44:35.366Z,100204.05
2023-05-02T14:47:06.119Z,100201.20
2023-05-02T14:49:35.885Z,100204.95
2023-05-02T14:52:03.573Z,100209.51
2023-05-02T14:54:31.897Z,100209.55
2023-05-02T14:57:07.162Z,100215.45
2023-05-02T14:59:36.470Z,100210.98
2023-05-02T15:02:04.306Z,100207.94
2023-05-02T15:04:33.673Z,100203.30
2023-05-02T15:07:01.675Z,100205.56
2023-05-02T15:09:29.488Z,100205.17
2023-05-02T15:11:59.784Z,100200.38
2023-05-02T15:14:27.363Z,100202.58
2023-05-02T15:16:55.278Z,100205.75
2023-05-02T15:19:25.712Z,100209.96
2023-05-02T15:21:58.721Z,100206.62
2023-05-02T15:24:31.044Z,100205.91
2023-05-02T15:27:02.747Z,100206.18
2023-05-02T15:29:31.365Z,100213.02
2023-05-02T15:31:58.653Z,100216.95
2023-05-02T15:34:27.964Z,100217.36
2023-05-02T15:36:57.971Z,100217.71
2023-05-02T15:39:45.386Z,100221.12
2023-05-02T15:42:12.842Z,100227.64
2023-05-02T15:44:40.231Z,100226.25
2023-05-02T15:47:07.610Z,100226.33
2023-05-02T15:49:35.445Z,100225.08
2023-05-02T15:52:10.065Z,100226.92
2023-05-02T15:54:40.191Z,100227.73
2023-05-02T15:57:07.851Z,100232.04
2023-05-02T15:59:39.500Z,100232.66
2023-05-02T16:02:10.258Z,100236.54
2023-05-02T16:04:48.135Z,100236.23
2023-05-02T16:07:16.362Z,100240.23
2023-05-02T16:09:53.026Z,100240.11
2023-05-02T16:12:37.251Z,100242.10
2023-05-02T16:15:10.327Z,100248.08
2023-05-02T16:17:43.178Z,100248.72
2023-05-02T16:20:13.750Z,100251.40
2023-05-02T16:22:48.153Z,100257.59
2023-05-02T16:25:17.512Z,100261.68
2023-05-02T16:27:44.962Z,100261.80
2023-05-02T16:30:20.085Z,100263.20
2023-05-02T16:32:54.834Z,100264.11
2023-05-02T16:35:31.309Z,100264.56
2023-05-02T16:38:01.514Z,100271.36
2023-05-02T16:40:29.042Z,100268.48
2023-05-02T16:42:56.366Z,100270.50
2023-05-02T16:45:26.828Z,100272.03
2023-05-02T16:47:54.425Z,100273.05
2023-05-02T16:50:22.035Z,100271.05
2023-05-02T16:53:00.990Z,100272.75
2023-05-02T16:55:30.743Z,100272.16
2023-05-02T16:57:58.158Z,100276.89
2023-05-02T17:00:27.258Z,100275.34
2023-05-02T17:02:57.623Z,100277.00
2023-05-02T17:05:25.318Z,100278.90
2023-05-02T17:07:53.178Z,100279.85
2023-05-02T17:10:22.425Z,100288.09
2023-05-02T17:12:50.070Z,100287.55
2023-05-02T17:15:17.629Z,100288.02
2023-05-02T17:17:45.622Z,100290.84
2023-05-02T17:22:56.288Z,100296.61
2023-05-02T17:25:23.708Z,100295.89
2023-05-02T17:27:56.897Z,100300.99
2023-05-02T17:30:25.573Z,100303.39
2023-05-02T17:32:53.573Z,100308.39
2023-05-02T17:35:21.101Z,100310.73
2023-05-02T17:37:48.694Z,100313.18
2023-05-02T17:40:17.076Z,100314.19
2023-05-02T17:42:47.652Z,100317.29
2023-05-02T17:45:15.220Z,100320.70
2023-05-02T17:47:42.610Z,100325.39
2023-05-02T17:50:10.147Z,100327.09
2023-05-02T17:52:41.204Z,100324.69
2023-05-02T17:59:12.083Z,100330.14
2023-05-02T18:01:39.642Z,100326.70
2023-05-02T18:04:07.303Z,100324.08
2023-05-02T18:06:35.208Z,100324.33
2023-05-02T18:09:02.854Z,100325.35
2023-05-02T18:11:37.992Z,100323.96
2023-05-02T18:14:06.470Z,100331.09
2023-05-02T18:16:34.725Z,100326.73
2023-05-02T18:19:02.408Z,100324.02
2023-05-02T18:21:31.404Z,100324.65
2023-05-02T18:23:59.170Z,100328.79
2023-05-02T18:26:26.978Z,100329.83
2023-05-02T18:28:54.625Z,100328.74
2023-05-02T18:31:22.608Z,100328.25
2023-05-02T18:33:50.338Z,100331.45
2023-05-02T18:36:20.990Z,100328.91
2023-05-02T18:38:48.619Z,100333.11
2023-05-02T18:41:18.537Z,100333.31
2023-05-02T18:43:46.191Z,100335.75
2023-05-02T18:46:13.783Z,100336.52
2023-05-02T18:48:41.213Z,100330.96
2023-05-02T18:51:08.539Z,100338.45
2023-05-02T18:53:36.197Z,100336.86
2023-05-02T18:56:03.995Z,100336.16
2023-05-02T18:58:31.973Z,100332.71
2023-05-02T19:00:59.559Z,100328.63
2023-05-02T19:03:27.248Z,100324.00
2023-05-02T19:05:54.632Z,100321.54
2023-05-02T19:08:23.032Z,100325.24
2023-05-02T19:10:50.569Z,100324.29
2023-05-02T19:13:18.178Z,100326.90
2023-05-02T19:15:45.760Z,100324.57
2023-05-02T19:18:14.689Z,100323.54
2023-05-02T19:20:42.239Z,100322.30
2023-05-02T19:23:19.755Z,100318.17
2023-05-02T19:25:48.154Z,100320.88
2023-05-02T19:28:17.147Z,100317.39
2023-05-02T19:30:45.002Z,100321.32
2023-05-02T19:33:12.910Z,100321.44
2023-05-02T19:35:40.496Z,100320.08
2023-05-02T19:38:08.154Z,100320.60
2023-05-02T19:40:35.518Z,100320.34
2023-05-02T19:43:03.174Z,100319.61
2023-05-02T19:45:30.736Z,100318.17
2023-05-02T19:47:59.053Z,100317.58
2023-05-02T19:50:27.004Z,100322.02
2023-05-02T19:52:54.758Z,100322.88
2023-05-02T19:55:22.204Z,100323.66
2023-05-02T19:57:49.988Z,100327.77
2023-05-02T20:00:17.933Z,100325.77
2023-05-02T20:02:45.638Z,100325.80
2023-05-02T20:05:13.270Z,100325.65
2023-05-02T20:07:40.651Z,100325.14
2023-05-02T20:10:08.786Z,100325.04
2023-05-02T20:12:36.124Z,100326.73
2023-05-02T20:15:04.508Z,100331.05
2023-05-02T20:17:32.198Z,100327.37
2023-05-02T20:19:59.889Z,100329.42
2023-05-02T20:22:27.403Z,100329.52
2023-05-02T20:24:55.256Z,100328.42
2023-05-02T20:27:22.632Z,100328.53
2023-05-02T20:29:52.155Z,100328.73
2023-05-02T20:32:19.628Z,100324.99
2023-05-02T20:34:47.744Z,100321.68
2023-05-02T20:37:15.199Z,100326.88
2023-05-02T20:39:42.787Z,100327.50
2023-05-02T20:42:10.523Z,100332.13
2023-05-02T20:44:38.287Z,100331.85
2023-05-02T20:47:06.054Z,100327.77
2023-05-02T20:49:33.626Z,100325.60
2023-05-02T20:52:05.933Z,100323.09
2023-05-02T20:54:33.552Z,100319.17
2023-05-02T20:57:02.947Z,100318.38
2023-05-02T20:59:30.926Z,100317.84
2023-05-02T21:01:58.493Z,100320.26
2023-05-02T21:04:25.934Z,100322.70
2023-05-02T21:06:55.371Z,100321.34
2023-05-02T21:09:23.451Z,100321.02
2023-05-02T21:11:51.172Z,100317.70
2023-05-02T21:14:18.627Z,100318.21
2023-05-02T21:16:46.288Z,100313.76
2023-05-02T21:19:14.057Z,100315.14
2023-05-02T21:21:41.506Z,100314.93
2023-05-02T21:24:09.482Z,100314.73
2023-05-02T21:26:37.041Z,100314.03
2023-05-02T21:29:04.489Z,100314.65
2023-05-02T21:31:32.298Z,100318.05
2023-05-02T21:34:00.328Z,100319.86
2023-05-02T21:36:27.784Z,100318.41
2023-05-02T21:38:55.358Z,100317.13
2023-05-02T21:41:23.106Z,100317.06
2023-05-02T21:43:50.769Z,100321.30
2023-05-02T21:46:18.358Z,100320.21
2023-05-02T21:48:45.780Z,100321.54
2023-05-02T21:51:14.466Z,100319.95
2023-05-02T21:53:41.939Z,100320.77
2023-05-02T21:56:10.657Z,100317.08
2023-05-02T21:58:38.274Z,100321.40
2023-05-02T22:01:05.834Z,100326.60
2023-05-02T22:03:34.962Z,100327.41
2023-05-02T22:06:06.456Z,100330.30
2023-05-02T22:08:34.341Z,100332.21
2023-05-02T22:11:04.876Z,100327.80
2023-05-02T22:13:32.429Z,100328.45
2023-05-02T22:16:00.398Z,100323.67
2023-05-02T22:18:27.959Z,100321.75
2023-05-02T22:20:57.668Z,100329.00
2023-05-02T22:23:25.346Z,100328.55
2023-05-02T22:25:52.997Z,100326.70
2023-05-02T22:28:20.756Z,100325.28
2023-05-02T22:30:48.271Z,100326.65
2023-05-02T22:33:15.703Z,100330.60
2023-05-02T22:35:43.545Z,100335.75
2023-05-02T22:38:12.540Z,100338.63
2023-05-02T22:40:40.004Z,100336.38
2023-05-02T22:43:08.464Z,100337.27
2023-05-02T22:45:36.844Z,100337.55
2023-05-02T22:48:04.895Z,100339.92
2023-05-02T22:50:32.383Z,100339.10
2023-05-02T22:53:00.440Z,100338.44
2023-05-02T22:55:28.209Z,100337.20
2023-05-02T22:57:56.082Z,100335.05
2023-05-02T23:00:24.149Z,100336.37
2023-05-02T23:02:51.989Z,100333.68
2023-05-02T23:05:19.871Z,100336.77
2023-05-02T23:07:47.233Z,100340.02
2023-05-02T23:10:14.884Z,100342.45
2023-05-02T23:12:42.444Z,100341.23
2023-05-02T23:15:10.513Z,100341.34
2023-05-02T23:17:41.436Z,100343.55
2023-05-02T23:20:12.341Z,100350.12
2023-05-02T23:22:43.738Z,100347.45
2023-05-02T23:25:11.234Z,100350.69
2023-05-02T23:27:38.958Z,100350.20
2023-05-02T23:30:09.960Z,100349.91
2023-05-02T23:32:37.798Z,100347.95
2023-05-02T23:35:06.177Z,100352.25
2023-05-02T23:37:33.610Z,100351.60
2023-05-02T23:40:01.282Z,100350.85
2023-05-02T23:42:29.245Z,100348.13
2023-05-02T23:44:58.081Z,100354.96
2023-05-02T23:47:28.374Z,100357.88
2023-05-02T23:49:56.003Z,100360.80
2023-05-02T23:52:23.388Z,100362.98
2023-05-02T23:54:52.456Z,100358.75
2023-05-02T23:57:19.398Z,100355.64
2023-05-02T23:59:46.129Z,100350.89
